createdAt,value
2023-02-01T00:01:47.302Z,98390.06
2023-02-01T00:04:16.364Z,98390.59
2023-02-01T00:06:45.484Z,98391.75
2023-02-01T00:09:14.479Z,98384.47
2023-02-01T00:11:43.467Z,98392.09
2023-02-01T00:14:13.140Z,98398.72
2023-02-01T00:16:43.659Z,98391.59
2023-02-01T00:19:15.325Z,98390.75
2023-02-01T00:21:45.552Z,98386.69
2023-02-01T00:24:14.902Z,98402.91
2023-02-01T00:26:46.473Z,98403.50
2023-02-01T00:29:18.261Z,98413.00
2023-02-01T00:31:48.881Z,98418.91
2023-02-01T00:34:19.049Z,98429.25
2023-02-01T00:36:48.734Z,98429.91
2023-02-01T00:39:18.249Z,98425.53
2023-02-01T00:41:48.031Z,98419.66
2023-02-01T00:44:17.346Z,98419.59
2023-02-01T00:46:48.367Z,98417.25
2023-02-01T00:49:17.654Z,98409.13
2023-02-01T00:51:46.647Z,98403.47
2023-02-01T00:54:18.908Z,98395.53
2023-02-01T00:56:47.947Z,98393.25
2023-02-01T00:59:17.169Z,98382.47
2023-02-01T01:01:46.242Z,98394.84
2023-02-01T01:04:16.683Z,98379.38
2023-02-01T01:06:45.641Z,98380.88
2023-02-01T01:09:14.807Z,98379.13
2023-02-01T01:11:43.791Z,98377.50
2023-02-01T01:14:13.379Z,98372.81
2023-02-01T01:16:42.450Z,98346.69
2023-02-01T01:19:11.422Z,98337.25
2023-02-01T01:21:41.862Z,98335.16
2023-02-01T01:24:11.070Z,98326.94
2023-02-01T01:26:40.256Z,98338.00
2023-02-01T01:29:11.616Z,98314.19
2023-02-01T01:31:40.736Z,98319.34
2023-02-01T01:34:11.018Z,98303.88
2023-02-01T01:36:41.462Z,98308.13
2023-02-01T01:39:10.467Z,98301.41
2023-02-01T01:41:39.690Z,98310.81
2023-02-01T01:44:59.221Z,98317.47
2023-02-01T01:47:34.674Z,98325.75
2023-02-01T01:50:06.149Z,98319.94
2023-02-01T01:52:39.342Z,98307.66
2023-02-01T01:55:09.347Z,98304.44
2023-02-01T01:57:44.235Z,98308.34
2023-02-01T02:00:16.705Z,98308.34
2023-02-01T02:02:52.974Z,98313.84
2023-02-01T02:05:25.638Z,98309.81
2023-02-01T02:08:01.476Z,98320.00
2023-02-01T02:10:45.351Z,98304.81
2023-02-01T02:13:15.605Z,98309.50
2023-02-01T02:15:56.993Z,98305.31
2023-02-01T02:18:36.495Z,98313.59
2023-02-01T02:21:17.104Z,98306.47
2023-02-01T02:24:35.919Z,98303.25
2023-02-01T02:27:27.707Z,98304.69
2023-02-01T02:30:42.812Z,98306.63
2023-02-01T02:33:44.255Z,98298.56
2023-02-01T02:36:22.096Z,98294.94
2023-02-01T02:39:02.161Z,98305.78
2023-02-01T02:42:06.467Z,98309.66
2023-02-01T02:45:03.926Z,98316.75
2023-02-01T02:47:44.283Z,98307.41
2023-02-01T02:50:46.117Z,98308.63
2023-02-01T02:53:37.829Z,98289.44
2023-02-01T02:56:27.800Z,98298.97
2023-02-01T02:59:18.092Z,98285.31
2023-02-01T03:02:09.108Z,98272.94
2023-02-01T03:04:38.803Z,98282.50
2023-02-01T03:07:37.691Z,98283.34
2023-02-01T03:10:14.788Z,98277.84
2023-02-01T03:12:58.080Z,98291.59
2023-02-01T03:15:38.165Z,98289.50
2023-02-01T03:18:15.327Z,98282.22
2023-02-01T03:20:50.104Z,98282.91
2023-02-01T03:23:23.996Z,98294.38
2023-02-01T03:25:57.017Z,98295.34
2023-02-01T03:28:27.861Z,98290.34
2023-02-01T03:30:58.115Z,98284.34
2023-02-01T03:33:31.199Z,98289.38
2023-02-01T03:36:23.824Z,98289.84
2023-02-01T03:39:00.211Z,98294.88
2023-02-01T03:41:37.901Z,98297.63
2023-02-01T03:44:16.450Z,98293.09
2023-02-01T03:46:52.052Z,98303.25
2023-02-01T03:49:27.547Z,98305.53
2023-02-01T03:51:59.021Z,98315.56
2023-02-01T03:54:30.609Z,98312.03
2023-02-01T03:57:05.313Z,98317.84
2023-02-01T03:59:34.389Z,98308.13
2023-02-01T04:02:03.696Z,98306.50
2023-02-01T04:04:33.335Z,98315.06
2023-02-01T04:07:02.537Z,98314.13
2023-02-01T04:09:32.105Z,98312.34
2023-02-01T04:12:03.450Z,98323.31
2023-02-01T04:14:32.573Z,98331.09
2023-02-01T04:17:01.614Z,98324.94
2023-02-01T04:19:30.675Z,98328.00
2023-02-01T04:21:59.759Z,98332.03
2023-02-01T04:24:28.863Z,98324.09
2023-02-01T04:26:57.922Z,98321.03
2023-02-01T04:29:28.460Z,98328.47
2023-02-01T04:31:57.472Z,98329.91
2023-02-01T04:34:27.332Z,98326.88
2023-02-01T04:36:56.448Z,98340.44
2023-02-01T04:39:25.726Z,98342.69
2023-02-01T04:41:54.966Z,98330.09
2023-02-01T04:44:24.211Z,98326.53
2023-02-01T04:46:54.733Z,98321.84
2023-02-01T04:49:23.984Z,98318.78
2023-02-01T04:51:53.069Z,98310.03
2023-02-01T04:54:22.255Z,98317.16
2023-02-01T04:56:51.320Z,98313.91
2023-02-01T04:59:20.451Z,98316.53
2023-02-01T05:01:49.533Z,98311.66
2023-02-01T05:04:20.156Z,98323.63
2023-02-01T05:06:49.286Z,98330.75
2023-02-01T05:09:18.299Z,98323.47
2023-02-01T05:12:04.888Z,98334.28
2023-02-01T05:14:33.970Z,98315.88
2023-02-01T05:17:03.130Z,98322.34
2023-02-01T05:19:33.675Z,98300.69
2023-02-01T05:22:02.788Z,98310.03
2023-02-01T05:24:31.848Z,98312.31
2023-02-01T05:27:00.934Z,98315.19
2023-02-01T05:29:30.239Z,98316.50
2023-02-01T05:32:05.241Z,98308.09
2023-02-01T05:34:42.440Z,98306.50
2023-02-01T05:37:11.501Z,98310.38
2023-02-01T05:39:40.605Z,98313.91
2023-02-01T05:42:09.629Z,98312.28
2023-02-01T05:44:38.695Z,98304.84
2023-02-01T05:47:07.722Z,98312.91
2023-02-01T05:49:36.853Z,98318.41
2023-02-01T05:52:07.368Z,98307.44
2023-02-01T05:54:36.574Z,98307.28
2023-02-01T05:57:05.947Z,98312.00
2023-02-01T05:59:35.360Z,98309.72
2023-02-01T06:02:04.390Z,98313.44
2023-02-01T06:04:33.459Z,98304.88
2023-02-01T06:07:02.475Z,98315.06
2023-02-01T06:09:32.932Z,98309.72
2023-02-01T06:12:02.402Z,98313.75
2023-02-01T06:14:31.653Z,98313.94
2023-02-01T06:17:00.808Z,98327.81
2023-02-01T06:19:29.846Z,98330.88
2023-02-01T06:21:58.851Z,98331.22
2023-02-01T06:24:27.971Z,98324.25
2023-02-01T06:26:58.379Z,98332.50
2023-02-01T06:29:27.673Z,98337.38
2023-02-01T06:31:56.782Z,98341.25
2023-02-01T06:34:25.883Z,98360.63
2023-02-01T06:36:56.005Z,98365.00
2023-02-01T06:39:25.137Z,98368.41
2023-02-01T06:41:54.181Z,98357.44
2023-02-01T06:44:24.641Z,98363.06
2023-02-01T06:46:53.731Z,98368.56
2023-02-01T06:49:22.930Z,98361.44
2023-02-01T06:51:51.976Z,98369.38
2023-02-01T06:54:21.205Z,98368.22
2023-02-01T06:56:50.443Z,98369.03
2023-02-01T06:59:19.505Z,98371.84
2023-02-01T07:01:49.994Z,98374.53
2023-02-01T07:04:19.041Z,98377.34
2023-02-01T07:06:48.164Z,98375.03
2023-02-01T07:09:17.226Z,98371.28
2023-02-01T07:11:46.312Z,98369.13
2023-02-01T07:14:15.753Z,98372.13
2023-02-01T07:16:44.749Z,98371.19
2023-02-01T07:19:15.403Z,98357.06
2023-02-01T07:21:44.407Z,98358.28
2023-02-01T07:24:13.503Z,98357.06
2023-02-01T07:26:42.897Z,98341.72
2023-02-01T07:29:11.969Z,98343.59
2023-02-01T07:31:41.225Z,98346.66
2023-02-01T07:34:10.291Z,98363.47
2023-02-01T07:36:40.734Z,98358.72
2023-02-01T07:39:10.064Z,98372.78
2023-02-01T07:41:39.139Z,98337.81
2023-02-01T07:44:08.318Z,98364.72
2023-02-01T07:46:37.430Z,98377.84
2023-02-01T07:49:06.561Z,98370.41
2023-02-01T07:51:35.698Z,98373.06
2023-02-01T07:54:06.192Z,98371.22
2023-02-01T07:56:35.276Z,98378.13
2023-02-01T07:59:04.320Z,98374.84
2023-02-01T08:01:32.370Z,98400.34
2023-02-01T08:04:04.039Z,98371.97
2023-02-01T08:06:36.079Z,98386.59
2023-02-01T08:09:08.717Z,98383.47
2023-02-01T08:11:38.975Z,98381.75
2023-02-01T08:14:08.241Z,98389.16
2023-02-01T08:16:38.901Z,98383.78
2023-02-01T08:19:07.975Z,98380.28
2023-02-01T08:21:38.457Z,98385.28
2023-02-01T08:24:11.956Z,98378.97
2023-02-01T08:26:41.201Z,98394.91
2023-02-01T08:29:12.545Z,98387.59
2023-02-01T08:31:44.451Z,98394.03
2023-02-01T08:34:13.863Z,98382.78
2023-02-01T08:36:43.024Z,98384.19
2023-02-01T08:39:13.833Z,98380.47
2023-02-01T08:42:03.494Z,98383.81
2023-02-01T08:44:32.922Z,98377.88
2023-02-01T08:47:01.974Z,98385.34
2023-02-01T08:49:31.396Z,98372.94
2023-02-01T08:52:03.969Z,98363.00
2023-02-01T08:54:37.562Z,98374.38
2023-02-01T08:57:06.947Z,98358.59
2023-02-01T08:59:36.012Z,98363.69
2023-02-01T09:02:05.149Z,98352.66
2023-02-01T09:04:34.190Z,98344.25
2023-02-01T09:07:03.272Z,98350.06
2023-02-01T09:09:32.354Z,98344.72
2023-02-01T09:12:02.950Z,98347.34
2023-02-01T09:14:32.067Z,98341.00
2023-02-01T09:17:01.130Z,98344.31
2023-02-01T09:19:30.218Z,98333.13
2023-02-01T09:21:59.353Z,98338.34
2023-02-01T09:24:28.655Z,98342.72
2023-02-01T09:26:57.952Z,98321.88
2023-02-01T09:29:28.408Z,98327.81
2023-02-01T09:32:03.735Z,98333.41
2023-02-01T09:34:33.579Z,98332.19
2023-02-01T09:37:03.018Z,98321.25
2023-02-01T09:39:34.881Z,98316.75
2023-02-01T09:42:19.115Z,98316.34
2023-02-01T09:45:12.384Z,98316.69
2023-02-01T09:47:49.433Z,98304.25
2023-02-01T09:50:24.680Z,98296.59
2023-02-01T09:53:01.372Z,98292.97
2023-02-01T09:55:44.034Z,98292.16
2023-02-01T09:58:20.395Z,98301.66
2023-02-01T10:00:56.448Z,98288.38
2023-02-01T10:03:29.217Z,98289.13
2023-02-01T10:06:20.056Z,98283.38
2023-02-01T10:09:25.090Z,98282.53
2023-02-01T10:12:19.000Z,98284.00
2023-02-01T10:15:04.241Z,98287.19
2023-02-01T10:17:50.651Z,98281.97
2023-02-01T10:20:29.620Z,98277.66
2023-02-01T10:23:32.600Z,98275.34
2023-02-01T10:26:15.348Z,98278.19
2023-02-01T10:28:48.908Z,98277.66
2023-02-01T10:31:19.523Z,98265.66
2023-02-01T10:33:53.350Z,98259.66
2023-02-01T10:36:30.246Z,98263.72
2023-02-01T10:39:00.940Z,98249.69
2023-02-01T10:41:35.413Z,98258.50
2023-02-01T10:44:09.935Z,98232.16
2023-02-01T10:46:39.139Z,98241.84
2023-02-01T10:49:18.610Z,98238.78
2023-02-01T10:51:54.053Z,98236.47
2023-02-01T10:54:34.154Z,98227.31
2023-02-01T10:57:03.307Z,98234.16
2023-02-01T10:59:33.612Z,98223.56
2023-02-01T11:02:07.810Z,98231.31
2023-02-01T11:04:39.064Z,98222.81
2023-02-01T11:07:15.253Z,98203.44
2023-02-01T11:09:50.494Z,98199.38
2023-02-01T11:12:31.856Z,98204.84
2023-02-01T11:15:16.118Z,98213.75
2023-02-01T11:17:52.538Z,98228.88
2023-02-01T11:20:41.693Z,98195.09
2023-02-01T11:23:17.604Z,98203.16
2023-02-01T11:25:56.272Z,98194.59
2023-02-01T11:28:29.085Z,98190.25
2023-02-01T11:31:02.329Z,98186.13
2023-02-01T11:33:36.272Z,98173.06
2023-02-01T11:36:13.038Z,98167.31
2023-02-01T11:38:55.898Z,98170.13
2023-02-01T11:41:27.917Z,98175.63
2023-02-01T11:44:00.057Z,98159.59
2023-02-01T11:46:33.328Z,98145.72
2023-02-01T11:49:23.580Z,98164.47
2023-02-01T11:52:19.482Z,98146.25
2023-02-01T11:55:10.748Z,98150.00
2023-02-01T11:57:59.173Z,98138.94
2023-02-01T12:00:49.004Z,98135.69
2023-02-01T12:03:58.608Z,98127.56
2023-02-01T12:06:38.577Z,98127.00
2023-02-01T12:09:31.435Z,98136.13
2023-02-01T12:12:11.381Z,98112.03
2023-02-01T12:15:01.360Z,98124.63
2023-02-01T12:17:50.288Z,98125.91
2023-02-01T12:20:36.682Z,98123.38
2023-02-01T12:23:23.270Z,98128.38
2023-02-01T12:26:13.530Z,98113.38
2023-02-01T12:29:07.218Z,98113.38
2023-02-01T12:31:52.811Z,98130.03
2023-02-01T12:34:50.033Z,98112.06
2023-02-01T12:37:45.338Z,98109.19
2023-02-01T12:40:30.930Z,98110.78
2023-02-01T12:43:07.470Z,98129.19
2023-02-01T12:45:43.168Z,98109.00
2023-02-01T12:48:29.201Z,98131.38
2023-02-01T12:51:02.938Z,98127.09
2023-02-01T12:53:48.012Z,98126.56
2023-02-01T12:56:27.486Z,98121.16
2023-02-01T12:59:04.163Z,98127.56
2023-02-01T13:01:39.734Z,98126.84
2023-02-01T13:04:19.405Z,98125.41
2023-02-01T13:06:54.719Z,98133.50
2023-02-01T13:09:30.487Z,98130.84
2023-02-01T13:12:13.662Z,98134.88
2023-02-01T13:14:50.999Z,98135.28
2023-02-01T13:17:25.735Z,98142.91
2023-02-01T13:19:59.153Z,98140.31
2023-02-01T13:22:33.765Z,98145.94
2023-02-01T13:25:07.966Z,98140.22
2023-02-01T13:27:38.293Z,98151.50
2023-02-01T13:30:31.477Z,98149.28
2023-02-01T13:33:53.776Z,98161.81
2023-02-01T13:36:46.760Z,98144.09
2023-02-01T13:40:10.222Z,98175.16
2023-02-01T13:42:51.095Z,98180.63
2023-02-01T13:45:26.404Z,98179.06
2023-02-01T13:48:00.123Z,98173.66
2023-02-01T13:50:35.135Z,98166.28
2023-02-01T13:53:17.737Z,98166.78
2023-02-01T13:55:48.935Z,98173.56
2023-02-01T13:58:22.773Z,98177.69
2023-02-01T14:01:13.462Z,98176.91
2023-02-01T14:03:48.332Z,98175.25
2023-02-01T14:06:46.456Z,98170.47
2023-02-01T14:09:33.317Z,98175.22
2023-02-01T14:12:49.904Z,98172.06
2023-02-01T14:15:27.738Z,98168.06
2023-02-01T14:17:58.704Z,98190.13
2023-02-01T14:20:57.041Z,98194.19
2023-02-01T14:23:34.051Z,98201.91
2023-02-01T14:26:23.167Z,98190.78
2023-02-01T14:29:03.609Z,98193.06
2023-02-01T14:32:03.863Z,98189.84
2023-02-01T14:34:53.530Z,98193.50
2023-02-01T14:37:30.532Z,98187.91
2023-02-01T14:40:03.639Z,98216.59
2023-02-01T14:42:41.478Z,98206.19
2023-02-01T14:45:53.556Z,98214.88
2023-02-01T14:48:49.578Z,98212.28
2023-02-01T14:51:21.384Z,98211.25
2023-02-01T14:53:52.271Z,98217.53
2023-02-01T14:56:22.989Z,98217.66
2023-02-01T14:58:58.510Z,98202.47
2023-02-01T15:01:31.941Z,98220.84
2023-02-01T15:04:07.978Z,98222.63
2023-02-01T15:06:42.435Z,98197.88
2023-02-01T15:09:24.004Z,98221.31
2023-02-01T15:12:02.039Z,98207.03
2023-02-01T15:14:34.464Z,98192.69
2023-02-01T15:17:04.058Z,98205.34
2023-02-01T15:19:33.170Z,98214.97
2023-02-01T15:22:03.729Z,98211.06
2023-02-01T15:24:33.727Z,98208.72
2023-02-01T15:27:07.949Z,98221.13
2023-02-01T15:29:37.208Z,98213.59
2023-02-01T15:32:07.255Z,98220.81
2023-02-01T15:34:51.056Z,98219.69
2023-02-01T15:37:24.238Z,98224.94
2023-02-01T15:40:20.443Z,98220.19
2023-02-01T15:42:55.248Z,98213.09
2023-02-01T15:45:29.214Z,98223.50
2023-02-01T15:48:01.672Z,98215.94
2023-02-01T15:50:33.762Z,98220.34
2023-02-01T15:53:06.184Z,98233.97
2023-02-01T15:55:43.008Z,98217.19
2023-02-01T15:58:27.223Z,98227.59
2023-02-01T16:00:58.843Z,98247.59
2023-02-01T16:03:37.037Z,98260.34
2023-02-01T16:06:09.284Z,98251.19
2023-02-01T16:08:50.863Z,98246.75
2023-02-01T16:11:31.477Z,98251.94
2023-02-01T16:14:01.703Z,98243.16
2023-02-01T16:16:32.008Z,98241.97
2023-02-01T16:19:01.143Z,98252.34
2023-02-01T16:21:30.225Z,98245.16
2023-02-01T16:24:04.888Z,98249.50
2023-02-01T16:26:35.239Z,98253.97
2023-02-01T16:29:07.209Z,98255.16
2023-02-01T16:31:39.975Z,98240.78
2023-02-01T16:34:16.244Z,98255.97
2023-02-01T16:36:47.092Z,98248.34
2023-02-01T16:39:17.662Z,98249.13
2023-02-01T16:41:47.387Z,98253.09
2023-02-01T16:44:16.543Z,98246.72
2023-02-01T16:46:48.531Z,98247.53
2023-02-01T16:49:22.569Z,98253.13
2023-02-01T16:51:54.874Z,98252.72
2023-02-01T16:54:25.461Z,98258.25
2023-02-01T16:56:55.337Z,98266.69
2023-02-01T16:59:24.428Z,98246.31
2023-02-01T17:01:53.447Z,98247.13
2023-02-01T17:04:23.024Z,98258.75
2023-02-01T17:06:52.239Z,98259.50
2023-02-01T17:09:21.911Z,98266.69
2023-02-01T17:11:52.319Z,98261.09
2023-02-01T17:14:23.549Z,98261.88
2023-02-01T17:16:56.115Z,98253.47
2023-02-01T17:19:26.118Z,98234.72
2023-02-01T17:21:59.970Z,98243.50
2023-02-01T17:24:47.674Z,98249.44
2023-02-01T17:27:19.640Z,98253.44
2023-02-01T17:29:51.787Z,98246.66
2023-02-01T17:32:24.212Z,98247.03
2023-02-01T17:34:53.492Z,98251.00
2023-02-01T17:37:28.531Z,98247.41
2023-02-01T17:39:58.163Z,98244.22
2023-02-01T17:42:31.488Z,98243.44
2023-02-01T17:45:03.711Z,98253.75
2023-02-01T17:47:33.425Z,98241.84
2023-02-01T17:50:03.059Z,98237.06
2023-02-01T17:52:32.184Z,98239.47
2023-02-01T17:55:01.287Z,98239.44
2023-02-01T17:57:31.803Z,98237.06
2023-02-01T18:00:00.954Z,98226.28
2023-02-01T18:02:30.089Z,98231.84
2023-02-01T18:05:00.646Z,98236.19
2023-02-01T18:07:29.759Z,98243.38
2023-02-01T18:09:58.844Z,98238.63
2023-02-01T18:12:27.968Z,98237.84
2023-02-01T18:14:58.709Z,98237.78
2023-02-01T18:17:27.799Z,98229.41
2023-02-01T18:19:56.822Z,98228.56
2023-02-01T18:22:26.147Z,98231.41
2023-02-01T18:24:55.185Z,98238.53
2023-02-01T18:27:25.705Z,98239.81
2023-02-01T18:29:55.798Z,98250.59
2023-02-01T18:32:26.320Z,98239.38
2023-02-01T18:34:55.890Z,98243.31
2023-02-01T18:37:25.035Z,98232.03
2023-02-01T18:39:54.170Z,98231.28
2023-02-01T18:42:23.288Z,98233.25
2023-02-01T18:44:52.503Z,98232.97
2023-02-01T18:47:22.603Z,98236.97
2023-02-01T18:49:53.018Z,98232.84
2023-02-01T18:52:22.169Z,98237.69
2023-02-01T18:54:59.119Z,98235.00
2023-02-01T18:57:30.284Z,98223.44
2023-02-01T18:59:59.749Z,98223.41
2023-02-01T19:02:29.319Z,98234.97
2023-02-01T19:05:00.023Z,98245.00
2023-02-01T19:07:29.185Z,98245.72
2023-02-01T19:09:58.480Z,98240.94
2023-02-01T19:12:27.904Z,98245.69
2023-02-01T19:14:57.229Z,98240.81
2023-02-01T19:17:26.611Z,98246.50
2023-02-01T19:19:58.642Z,98230.13
2023-02-01T19:22:29.391Z,98245.59
2023-02-01T19:24:58.556Z,98236.13
2023-02-01T19:27:27.715Z,98252.84
2023-02-01T19:29:56.833Z,98254.75
2023-02-01T19:32:26.020Z,98259.25
2023-02-01T19:34:55.218Z,98264.34
2023-02-01T19:37:24.490Z,98266.03
2023-02-01T19:39:55.995Z,98256.91
2023-02-01T19:42:26.965Z,98256.38
2023-02-01T19:45:01.125Z,98269.56
2023-02-01T19:47:32.627Z,98267.13
2023-02-01T19:50:02.125Z,98267.09
2023-02-01T19:52:32.481Z,98284.25
2023-02-01T19:55:03.241Z,98277.41
2023-02-01T19:57:34.013Z,98275.03
2023-02-01T20:00:03.830Z,98282.16
2023-02-01T20:02:32.322Z,98279.75
2023-02-01T20:05:01.483Z,98279.38
2023-02-01T20:07:30.550Z,98276.50
2023-02-01T20:10:02.945Z,98287.78
2023-02-01T20:12:32.203Z,98280.19
2023-02-01T20:15:01.397Z,98290.09
2023-02-01T20:17:32.945Z,98294.09
2023-02-01T20:20:03.539Z,98280.84
2023-02-01T20:22:32.791Z,98285.22
2023-02-01T20:25:04.387Z,98292.44
2023-02-01T20:27:34.521Z,98295.13
2023-02-01T20:30:04.996Z,98296.22
2023-02-01T20:32:34.020Z,98296.19
2023-02-01T20:35:03.134Z,98302.53
2023-02-01T20:37:32.167Z,98291.31
2023-02-01T20:40:01.338Z,98297.63
2023-02-01T20:42:31.933Z,98290.47
2023-02-01T20:45:01.272Z,98290.34
2023-02-01T20:47:30.936Z,98286.63
2023-02-01T20:50:00.305Z,98273.69
2023-02-01T20:52:29.452Z,98276.00
2023-02-01T20:54:58.656Z,98298.28
2023-02-01T20:57:27.851Z,98286.16
2023-02-01T20:59:59.445Z,98285.41
2023-02-01T21:02:28.678Z,98280.72
2023-02-01T21:04:57.877Z,98280.63
2023-02-01T21:07:27.317Z,98278.47
2023-02-01T21:09:57.570Z,98282.06
2023-02-01T21:12:26.745Z,98280.22
2023-02-01T21:14:56.431Z,98274.56
2023-02-01T21:17:28.597Z,98284.19
2023-02-01T21:19:57.946Z,98273.81
2023-02-01T21:22:27.172Z,98259.38
2023-02-01T21:24:56.653Z,98258.69
2023-02-01T21:27:25.820Z,98251.56
2023-02-01T21:29:54.901Z,98249.19
2023-02-01T21:32:24.759Z,98252.28
2023-02-01T21:34:58.623Z,98250.59
2023-02-01T21:37:28.025Z,98250.56
2023-02-01T21:39:57.487Z,98256.31
2023-02-01T21:42:29.332Z,98245.75
2023-02-01T21:44:59.611Z,98250.50
2023-02-01T21:47:29.154Z,98238.19
2023-02-01T21:50:00.292Z,98248.16
2023-02-01T21:52:29.944Z,98242.22
2023-02-01T21:54:59.958Z,98246.44
2023-02-01T21:57:30.412Z,98259.06
2023-02-01T22:00:00.221Z,98255.22
2023-02-01T22:02:30.296Z,98245.66
2023-02-01T22:05:01.625Z,98240.38
2023-02-01T22:07:30.742Z,98241.22
2023-02-01T22:10:00.975Z,98248.03
2023-02-01T22:12:30.082Z,98232.56
2023-02-01T22:14:59.173Z,98237.31
2023-02-01T22:17:28.448Z,98236.22
2023-02-01T22:19:57.693Z,98232.91
2023-02-01T22:22:28.144Z,98239.81
2023-02-01T22:24:57.408Z,98229.22
2023-02-01T22:28:31.227Z,98224.22
2023-02-01T22:30:16.249Z,98229.38
2023-02-01T22:32:45.609Z,98233.69
2023-02-01T22:35:15.019Z,98232.63
2023-02-01T22:37:45.521Z,98227.69
2023-02-01T22:40:15.165Z,98222.69
2023-02-01T22:42:46.730Z,98225.22
2023-02-01T22:45:16.272Z,98219.31
2023-02-01T22:47:47.887Z,98221.59
2023-02-01T22:50:17.677Z,98217.31
2023-02-01T22:52:48.147Z,98218.00
2023-02-01T22:55:17.435Z,98227.38
2023-02-01T22:57:46.649Z,98213.00
2023-02-01T23:00:16.533Z,98200.97
2023-02-01T23:02:45.760Z,98200.88
2023-02-01T23:05:15.006Z,98210.63
2023-02-01T23:07:45.984Z,98198.34
2023-02-01T23:10:18.095Z,98215.31
2023-02-01T23:12:47.606Z,98221.84
2023-02-01T23:15:18.045Z,98218.47
2023-02-01T23:17:47.690Z,98221.81
2023-02-01T23:20:19.452Z,98224.84
2023-02-01T23:22:50.600Z,98211.00
2023-02-01T23:25:21.191Z,98191.09
2023-02-01T23:27:50.289Z,98192.59
2023-02-01T23:30:19.763Z,98184.25
2023-02-01T23:32:48.909Z,98191.50
2023-02-01T23:35:18.173Z,98194.44
2023-02-01T23:37:47.264Z,98194.03
2023-02-01T23:40:16.787Z,98186.00
2023-02-01T23:43:07.238Z,98192.47
2023-02-01T23:45:36.357Z,98186.00
2023-02-01T23:48:06.430Z,98166.66
2023-02-01T23:50:35.518Z,98166.19
2023-02-01T23:53:04.622Z,98169.06
2023-02-01T23:55:33.685Z,98158.25
2023-02-01T23:58:04.132Z,98166.88
